Terminal Aerodrome Forecast
Issued by NWS

Home | Current Version | Previous Version | Text Only | Print | Product List | Glossary Off
Versions: 1 2 3 4 5 6 7 8 9 10 11 12 13 14 15 16 17 18 19 20 21 22

000
FTUS43 KJKL 191338 AAA
TAFSME
TAF AMD
KSME 191338Z 1914/2012 14006KT 6SM -SHRA BR SCT025 BKN050
     FM191400 14007KT 4SM SHRA BR BKN025 OVC050
     FM191500 14009KT P6SM VCSH BKN020 BKN120
     FM191800 18012KT 6SM BR VCTS BKN025CB OVC035
     FM192100 22012G21KT P6SM VCTS BKN030CB BKN250
     FM200200 VRB06KT P6SM VCSH SCT025 BKN050=

USA.gov is the U.S. government's official web portal to all federal, state and local government web resources and services.